sensor_id;sensor_type;location;lat;lon;timestamp;P1;durP1;ratioP1;P2;durP2;ratioP2
52434;SDS011;38354;52.892;6.148;2023-05-10T03:02:14;18.77;;;9.45;;
52434;SDS011;38354;52.892;6.148;2023-05-10T03:04:39;19.45;;;9.55;;
52434;SDS011;38354;52.892;6.148;2023-05-10T03:07:05;19.58;;;10.50;;
52434;SDS011;38354;52.892;6.148;2023-05-10T03:09:32;16.67;;;9.48;;
52434;SDS011;38354;52.892;6.148;2023-05-10T03:17:22;20.13;;;11.10;;
52434;SDS011;38354;52.892;6.148;2023-05-10T03:20:12;18.95;;;10.15;;
52434;SDS011;38354;52.892;6.148;2023-05-10T03:22:47;15.30;;;9.05;;
52434;SDS011;38354;52.892;6.148;2023-05-10T03:25:18;15.07;;;8.95;;
52434;SDS011;38354;52.892;6.148;2023-05-10T03:27:45;16.67;;;9.07;;
52434;SDS011;38354;52.892;6.148;2023-05-10T03:30:12;15.65;;;9.15;;
52434;SDS011;38354;52.892;6.148;2023-05-10T03:32:38;15.30;;;8.65;;
52434;SDS011;38354;52.892;6.148;2023-05-10T03:35:08;15.27;;;9.63;;
52434;SDS011;38354;52.892;6.148;2023-05-10T03:37:34;16.00;;;9.02;;
52434;SDS011;38354;52.892;6.148;2023-05-10T03:40:00;14.10;;;8.50;;
52434;SDS011;38354;52.892;6.148;2023-05-10T03:42:29;15.60;;;8.73;;
52434;SDS011;38354;52.892;6.148;2023-05-10T03:45:01;15.48;;;8.18;;
52434;SDS011;38354;52.892;6.148;2023-05-10T03:47:26;15.18;;;8.00;;
52434;SDS011;38354;52.892;6.148;2023-05-10T03:49:55;14.27;;;8.00;;
52434;SDS011;38354;52.892;6.148;2023-05-10T03:52:21;14.18;;;8.05;;
52434;SDS011;38354;52.892;6.148;2023-05-10T03:54:46;12.55;;;7.70;;
52434;SDS011;38354;52.892;6.148;2023-05-10T03:57:12;14.38;;;8.38;;
52434;SDS011;38354;52.892;6.148;2023-05-10T03:59:38;13.50;;;7.97;;
52434;SDS011;38354;52.892;6.148;2023-05-10T04:02:07;13.32;;;8.60;;
52434;SDS011;38354;52.892;6.148;2023-05-10T04:04:45;13.43;;;8.27;;
52434;SDS011;38354;52.892;6.148;2023-05-10T04:09:46;10.57;;;7.25;;
52434;SDS011;38354;52.892;6.148;2023-05-10T04:12:12;12.77;;;7.88;;
52434;SDS011;38354;52.892;6.148;2023-05-10T04:14:38;12.43;;;7.72;;
52434;SDS011;38354;52.892;6.148;2023-05-10T04:17:04;12.38;;;7.57;;
52434;SDS011;38354;52.892;6.148;2023-05-10T04:19:31;15.68;;;7.95;;
52434;SDS011;38354;52.892;6.148;2023-05-10T04:21:57;12.95;;;7.60;;
52434;SDS011;38354;52.892;6.148;2023-05-10T04:24:23;11.70;;;7.97;;
52434;SDS011;38354;52.892;6.148;2023-05-10T04:26:59;14.07;;;8.32;;
52434;SDS011;38354;52.892;6.148;2023-05-10T04:29:28;12.85;;;8.00;;
52434;SDS011;38354;52.892;6.148;2023-05-10T04:31:54;12.30;;;7.90;;
52434;SDS011;38354;52.892;6.148;2023-05-10T04:34:21;12.40;;;8.23;;
52434;SDS011;38354;52.892;6.148;2023-05-10T04:36:47;14.43;;;7.75;;
52434;SDS011;38354;52.892;6.148;2023-05-10T04:39:16;13.23;;;8.57;;
52434;SDS011;38354;52.892;6.148;2023-05-10T04:41:42;14.77;;;9.00;;
52434;SDS011;38354;52.892;6.148;2023-05-10T04:44:07;12.27;;;8.43;;
52434;SDS011;38354;52.892;6.148;2023-05-10T04:46:33;14.52;;;8.02;;
52434;SDS011;38354;52.892;6.148;2023-05-10T04:48:59;13.18;;;8.40;;
52434;SDS011;38354;52.892;6.148;2023-05-10T04:51:24;15.10;;;8.73;;
52434;SDS011;38354;52.892;6.148;2023-05-10T04:53:51;14.18;;;9.07;;
52434;SDS011;38354;52.892;6.148;2023-05-10T04:56:17;14.50;;;8.82;;
52434;SDS011;38354;52.892;6.148;2023-05-10T04:58:43;13.95;;;8.75;;
52434;SDS011;38354;52.892;6.148;2023-05-10T05:01:08;14.60;;;8.40;;
52434;SDS011;38354;52.892;6.148;2023-05-10T05:03:35;15.50;;;9.27;;
52434;SDS011;38354;52.892;6.148;2023-05-10T05:06:01;16.65;;;9.95;;
52434;SDS011;38354;52.892;6.148;2023-05-10T05:08:27;17.33;;;10.38;;
52434;SDS011;38354;52.892;6.148;2023-05-10T05:10:53;17.10;;;9.88;;
52434;SDS011;38354;52.892;6.148;2023-05-10T05:13:19;17.02;;;9.77;;
52434;SDS011;38354;52.892;6.148;2023-05-10T05:18:37;21.63;;;9.98;;
52434;SDS011;38354;52.892;6.148;2023-05-10T05:21:13;17.50;;;9.60;;
52434;SDS011;38354;52.892;6.148;2023-05-10T05:23:42;20.35;;;9.38;;
52434;SDS011;38354;52.892;6.148;2023-05-10T05:26:08;15.32;;;8.70;;
52434;SDS011;38354;52.892;6.148;2023-05-10T05:28:34;16.05;;;9.27;;
52434;SDS011;38354;52.892;6.148;2023-05-10T05:31:05;19.52;;;9.57;;
52434;SDS011;38354;52.892;6.148;2023-05-10T05:33:34;18.90;;;9.98;;
52434;SDS011;38354;52.892;6.148;2023-05-10T05:36:04;18.13;;;9.95;;
52434;SDS011;38354;52.892;6.148;2023-05-10T05:38:30;20.20;;;10.30;;
52434;SDS011;38354;52.892;6.148;2023-05-10T05:40:56;18.90;;;10.30;;
52434;SDS011;38354;52.892;6.148;2023-05-10T05:43:22;18.77;;;9.32;;
52434;SDS011;38354;52.892;6.148;2023-05-10T05:45:48;19.40;;;10.88;;
52434;SDS011;38354;52.892;6.148;2023-05-10T05:48:14;19.25;;;10.23;;
52434;SDS011;38354;52.892;6.148;2023-05-10T05:50:40;21.13;;;9.77;;
52434;SDS011;38354;52.892;6.148;2023-05-10T05:53:05;16.35;;;8.77;;
52434;SDS011;38354;52.892;6.148;2023-05-10T05:55:31;15.93;;;8.45;;
52434;SDS011;38354;52.892;6.148;2023-05-10T05:57:57;12.93;;;7.55;;
52434;SDS011;38354;52.892;6.148;2023-05-10T06:02:53;11.88;;;6.22;;
52434;SDS011;38354;52.892;6.148;2023-05-10T06:05:19;9.90;;;5.70;;
52434;SDS011;38354;52.892;6.148;2023-05-10T06:07:47;6.60;;;4.70;;
52434;SDS011;38354;52.892;6.148;2023-05-10T06:10:12;7.00;;;4.90;;
52434;SDS011;38354;52.892;6.148;2023-05-10T06:12:38;7.05;;;5.18;;
52434;SDS011;38354;52.892;6.148;2023-05-10T06:15:03;9.40;;;5.25;;
52434;SDS011;38354;52.892;6.148;2023-05-10T06:17:39;9.73;;;5.72;;
52434;SDS011;38354;52.892;6.148;2023-05-10T06:20:08;9.65;;;4.85;;
52434;SDS011;38354;52.892;6.148;2023-05-10T06:22:34;7.88;;;5.40;;
52434;SDS011;38354;52.892;6.148;2023-05-10T06:25:00;6.00;;;4.22;;
52434;SDS011;38354;52.892;6.148;2023-05-10T06:27:26;7.13;;;4.70;;
52434;SDS011;38354;52.892;6.148;2023-05-10T06:29:58;6.90;;;4.55;;
52434;SDS011;38354;52.892;6.148;2023-05-10T06:32:24;5.97;;;4.00;;
52434;SDS011;38354;52.892;6.148;2023-05-10T06:34:50;4.40;;;3.10;;
52434;SDS011;38354;52.892;6.148;2023-05-10T06:37:16;6.03;;;3.92;;
52434;SDS011;38354;52.892;6.148;2023-05-10T06:39:41;7.85;;;3.90;;
52434;SDS011;38354;52.892;6.148;2023-05-10T06:42:07;9.10;;;4.70;;
52434;SDS011;38354;52.892;6.148;2023-05-10T06:44:33;8.32;;;4.80;;
52434;SDS011;38354;52.892;6.148;2023-05-10T06:46:58;12.85;;;5.80;;
52434;SDS011;38354;52.892;6.148;2023-05-10T06:49:24;12.90;;;6.70;;
52434;SDS011;38354;52.892;6.148;2023-05-10T06:51:50;13.20;;;7.20;;
52434;SDS011;38354;52.892;6.148;2023-05-10T06:54:15;13.40;;;6.10;;
52434;SDS011;38354;52.892;6.148;2023-05-10T06:56:41;11.05;;;5.57;;
52434;SDS011;38354;52.892;6.148;2023-05-10T06:59:07;6.65;;;3.42;;
52434;SDS011;38354;52.892;6.148;2023-05-10T07:01:32;4.53;;;2.88;;
52434;SDS011;38354;52.892;6.148;2023-05-10T07:03:58;6.15;;;3.65;;
52434;SDS011;38354;52.892;6.148;2023-05-10T07:06:24;4.00;;;2.80;;
52434;SDS011;38354;52.892;6.148;2023-05-10T07:08:50;5.32;;;3.33;;
52434;SDS011;38354;52.892;6.148;2023-05-10T07:11:15;5.75;;;3.67;;
52434;SDS011;38354;52.892;6.148;2023-05-10T07:13:41;5.75;;;3.35;;
52434;SDS011;38354;52.892;6.148;2023-05-10T07:16:09;5.20;;;3.25;;
52434;SDS011;38354;52.892;6.148;2023-05-10T07:18:35;5.68;;;3.20;;
52434;SDS011;38354;52.892;6.148;2023-05-10T07:21:01;5.03;;;3.08;;
52434;SDS011;38354;52.892;6.148;2023-05-10T07:23:27;5.30;;;3.63;;
52434;SDS011;38354;52.892;6.148;2023-05-10T07:25:52;4.85;;;3.33;;
52434;SDS011;38354;52.892;6.148;2023-05-10T07:28:19;4.93;;;3.20;;
52434;SDS011;38354;52.892;6.148;2023-05-10T07:30:45;5.22;;;3.05;;
52434;SDS011;38354;52.892;6.148;2023-05-10T07:33:12;5.38;;;3.58;;
52434;SDS011;38354;52.892;6.148;2023-05-10T07:35:39;5.05;;;2.90;;
52434;SDS011;38354;52.892;6.148;2023-05-10T07:38:04;4.70;;;3.33;;
52434;SDS011;38354;52.892;6.148;2023-05-10T07:40:30;5.43;;;2.95;;
52434;SDS011;38354;52.892;6.148;2023-05-10T07:42:56;5.03;;;3.05;;
52434;SDS011;38354;52.892;6.148;2023-05-10T07:45:22;3.70;;;2.38;;
52434;SDS011;38354;52.892;6.148;2023-05-10T07:47:48;4.45;;;3.10;;
52434;SDS011;38354;52.892;6.148;2023-05-10T07:50:14;4.60;;;2.88;;
52434;SDS011;38354;52.892;6.148;2023-05-10T07:52:40;5.72;;;3.17;;
52434;SDS011;38354;52.892;6.148;2023-05-10T07:55:06;5.28;;;2.90;;
52434;SDS011;38354;52.892;6.148;2023-05-10T07:57:42;5.28;;;3.38;;
52434;SDS011;38354;52.892;6.148;2023-05-10T08:00:08;5.55;;;4.13;;
52434;SDS011;38354;52.892;6.148;2023-05-10T08:02:35;6.65;;;4.63;;
52434;SDS011;38354;52.892;6.148;2023-05-10T08:05:01;7.72;;;5.18;;
52434;SDS011;38354;52.892;6.148;2023-05-10T08:07:27;5.78;;;4.28;;
52434;SDS011;38354;52.892;6.148;2023-05-10T08:09:52;5.88;;;4.40;;
52434;SDS011;38354;52.892;6.148;2023-05-10T08:12:18;6.25;;;4.30;;
52434;SDS011;38354;52.892;6.148;2023-05-10T08:14:43;7.18;;;4.40;;
52434;SDS011;38354;52.892;6.148;2023-05-10T08:17:09;5.32;;;4.10;;
52434;SDS011;38354;52.892;6.148;2023-05-10T08:19:35;8.65;;;4.03;;
52434;SDS011;38354;52.892;6.148;2023-05-10T08:22:00;8.98;;;3.40;;
52434;SDS011;38354;52.892;6.148;2023-05-10T08:24:26;3.72;;;2.83;;
52434;SDS011;38354;52.892;6.148;2023-05-10T08:26:51;5.28;;;3.13;;
52434;SDS011;38354;52.892;6.148;2023-05-10T08:29:17;5.40;;;3.70;;
52434;SDS011;38354;52.892;6.148;2023-05-10T08:31:43;6.43;;;4.20;;
52434;SDS011;38354;52.892;6.148;2023-05-10T08:34:10;5.95;;;3.75;;
52434;SDS011;38354;52.892;6.148;2023-05-10T08:36:35;7.50;;;4.63;;
52434;SDS011;38354;52.892;6.148;2023-05-10T08:39:01;7.65;;;4.70;;
52434;SDS011;38354;52.892;6.148;2023-05-10T08:41:27;7.53;;;4.97;;
52434;SDS011;38354;52.892;6.148;2023-05-10T08:43:54;7.07;;;4.50;;
52434;SDS011;38354;52.892;6.148;2023-05-10T08:46:21;7.95;;;4.90;;
52434;SDS011;38354;52.892;6.148;2023-05-10T08:48:49;6.90;;;4.28;;
52434;SDS011;38354;52.892;6.148;2023-05-10T08:51:18;6.50;;;3.95;;
52434;SDS011;38354;52.892;6.148;2023-05-10T08:53:57;5.13;;;3.03;;
52434;SDS011;38354;52.892;6.148;2023-05-10T08:56:23;5.20;;;3.38;;
52434;SDS011;38354;52.892;6.148;2023-05-10T08:58:49;6.75;;;3.88;;
52434;SDS011;38354;52.892;6.148;2023-05-10T09:01:16;5.53;;;3.20;;
52434;SDS011;38354;52.892;6.148;2023-05-10T09:03:43;3.80;;;2.72;;
52434;SDS011;38354;52.892;6.148;2023-05-10T09:06:11;4.93;;;3.10;;
52434;SDS011;38354;52.892;6.148;2023-05-10T09:08:38;6.13;;;3.85;;
52434;SDS011;38354;52.892;6.148;2023-05-10T09:11:05;5.00;;;3.03;;
52434;SDS011;38354;52.892;6.148;2023-05-10T09:13:30;7.03;;;3.60;;
52434;SDS011;38354;52.892;6.148;2023-05-10T09:15:57;5.05;;;3.25;;
52434;SDS011;38354;52.892;6.148;2023-05-10T09:18:23;5.68;;;3.20;;
52434;SDS011;38354;52.892;6.148;2023-05-10T09:20:49;4.90;;;3.45;;
52434;SDS011;38354;52.892;6.148;2023-05-10T09:23:15;5.90;;;3.85;;
52434;SDS011;38354;52.892;6.148;2023-05-10T09:25:43;6.78;;;3.53;;
52434;SDS011;38354;52.892;6.148;2023-05-10T09:28:09;6.15;;;3.63;;
52434;SDS011;38354;52.892;6.148;2023-05-10T09:30:35;6.15;;;4.13;;
52434;SDS011;38354;52.892;6.148;2023-05-10T09:33:01;9.15;;;4.47;;
52434;SDS011;38354;52.892;6.148;2023-05-10T09:35:28;7.90;;;4.40;;
52434;SDS011;38354;52.892;6.148;2023-05-10T09:37:57;9.65;;;5.15;;
52434;SDS011;38354;52.892;6.148;2023-05-10T09:40:25;6.28;;;4.57;;
52434;SDS011;38354;52.892;6.148;2023-05-10T09:42:58;7.30;;;4.82;;
52434;SDS011;38354;52.892;6.148;2023-05-10T09:45:30;7.05;;;4.82;;
52434;SDS011;38354;52.892;6.148;2023-05-10T09:47:57;6.53;;;4.50;;
52434;SDS011;38354;52.892;6.148;2023-05-10T09:50:24;6.75;;;4.45;;
52434;SDS011;38354;52.892;6.148;2023-05-10T09:58:03;6.63;;;4.78;;
52434;SDS011;38354;52.892;6.148;2023-05-10T10:00:35;8.55;;;5.40;;
52434;SDS011;38354;52.892;6.148;2023-05-10T10:03:03;7.80;;;5.20;;
52434;SDS011;38354;52.892;6.148;2023-05-10T10:05:33;10.73;;;6.88;;
52434;SDS011;38354;52.892;6.148;2023-05-10T10:08:00;10.68;;;6.25;;
52434;SDS011;38354;52.892;6.148;2023-05-10T10:10:32;11.65;;;5.53;;
52434;SDS011;38354;52.892;6.148;2023-05-10T10:13:01;8.93;;;4.80;;
52434;SDS011;38354;52.892;6.148;2023-05-10T10:15:35;7.50;;;4.65;;
52434;SDS011;38354;52.892;6.148;2023-05-10T10:18:01;8.52;;;4.78;;
52434;SDS011;38354;52.892;6.148;2023-05-10T10:20:29;6.68;;;4.82;;
52434;SDS011;38354;52.892;6.148;2023-05-10T10:22:55;6.15;;;4.55;;
52434;SDS011;38354;52.892;6.148;2023-05-10T10:25:20;7.97;;;5.00;;
52434;SDS011;38354;52.892;6.148;2023-05-10T10:35:31;5.38;;;3.30;;
52434;SDS011;38354;52.892;6.148;2023-05-10T10:37:57;11.18;;;4.18;;
52434;SDS011;38354;52.892;6.148;2023-05-10T10:40:24;6.72;;;3.80;;
52434;SDS011;38354;52.892;6.148;2023-05-10T10:42:57;6.00;;;4.22;;
52434;SDS011;38354;52.892;6.148;2023-05-10T10:45:24;7.35;;;4.35;;
52434;SDS011;38354;52.892;6.148;2023-05-10T10:50:48;6.85;;;4.40;;
52434;SDS011;38354;52.892;6.148;2023-05-10T10:53:22;7.90;;;4.20;;
52434;SDS011;38354;52.892;6.148;2023-05-10T10:56:09;6.30;;;4.22;;
52434;SDS011;38354;52.892;6.148;2023-05-10T10:58:38;8.27;;;4.88;;
52434;SDS011;38354;52.892;6.148;2023-05-10T11:01:19;7.00;;;4.05;;
52434;SDS011;38354;52.892;6.148;2023-05-10T11:04:16;6.30;;;4.00;;
52434;SDS011;38354;52.892;6.148;2023-05-10T11:06:40;8.38;;;4.75;;
52434;SDS011;38354;52.892;6.148;2023-05-10T11:09:08;11.50;;;5.70;;
52434;SDS011;38354;52.892;6.148;2023-05-10T11:11:35;8.10;;;5.20;;
52434;SDS011;38354;52.892;6.148;2023-05-10T11:14:07;8.00;;;5.05;;
52434;SDS011;38354;52.892;6.148;2023-05-10T11:16:43;10.07;;;5.72;;
52434;SDS011;38354;52.892;6.148;2023-05-10T11:19:16;11.23;;;6.40;;
52434;SDS011;38354;52.892;6.148;2023-05-10T11:21:49;14.25;;;7.28;;
52434;SDS011;38354;52.892;6.148;2023-05-10T11:24:20;14.85;;;7.18;;
52434;SDS011;38354;52.892;6.148;2023-05-10T11:26:49;13.63;;;7.50;;
52434;SDS011;38354;52.892;6.148;2023-05-10T11:29:16;18.60;;;9.25;;
52434;SDS011;38354;52.892;6.148;2023-05-10T11:31:43;14.25;;;7.82;;
52434;SDS011;38354;52.892;6.148;2023-05-10T11:34:09;13.90;;;8.27;;
52434;SDS011;38354;52.892;6.148;2023-05-10T11:36:36;17.30;;;8.90;;
52434;SDS011;38354;52.892;6.148;2023-05-10T11:39:02;16.20;;;8.88;;
52434;SDS011;38354;52.892;6.148;2023-05-10T11:41:29;18.13;;;8.73;;
52434;SDS011;38354;52.892;6.148;2023-05-10T11:43:56;15.18;;;8.30;;
52434;SDS011;38354;52.892;6.148;2023-05-10T11:46:24;14.85;;;8.52;;
52434;SDS011;38354;52.892;6.148;2023-05-10T11:48:52;13.85;;;8.25;;
52434;SDS011;38354;52.892;6.148;2023-05-10T11:51:20;16.17;;;8.73;;
52434;SDS011;38354;52.892;6.148;2023-05-10T11:53:47;14.50;;;8.98;;
52434;SDS011;38354;52.892;6.148;2023-05-10T11:56:15;17.15;;;9.60;;
52434;SDS011;38354;52.892;6.148;2023-05-10T11:58:41;15.77;;;9.10;;
52434;SDS011;38354;52.892;6.148;2023-05-10T12:01:07;17.08;;;9.45;;
52434;SDS011;38354;52.892;6.148;2023-05-10T12:03:34;18.08;;;9.77;;
52434;SDS011;38354;52.892;6.148;2023-05-10T12:06:01;18.65;;;9.32;;
52434;SDS011;38354;52.892;6.148;2023-05-10T12:08:28;17.67;;;9.88;;
52434;SDS011;38354;52.892;6.148;2023-05-10T12:11:03;18.58;;;10.07;;
52434;SDS011;38354;52.892;6.148;2023-05-10T12:13:30;15.85;;;8.82;;
52434;SDS011;38354;52.892;6.148;2023-05-10T12:15:59;17.80;;;9.32;;
52434;SDS011;38354;52.892;6.148;2023-05-10T12:18:48;16.85;;;9.68;;
52434;SDS011;38354;52.892;6.148;2023-05-10T12:21:16;16.60;;;9.23;;
52434;SDS011;38354;52.892;6.148;2023-05-10T12:23:43;13.75;;;8.02;;
52434;SDS011;38354;52.892;6.148;2023-05-10T12:26:11;13.57;;;8.40;;
52434;SDS011;38354;52.892;6.148;2023-05-10T12:28:36;18.88;;;9.32;;
52434;SDS011;38354;52.892;6.148;2023-05-10T12:31:03;15.40;;;9.05;;
52434;SDS011;38354;52.892;6.148;2023-05-10T12:33:36;15.73;;;8.40;;
52434;SDS011;38354;52.892;6.148;2023-05-10T12:36:07;14.23;;;8.48;;
52434;SDS011;38354;52.892;6.148;2023-05-10T12:38:40;12.70;;;7.97;;
52434;SDS011;38354;52.892;6.148;2023-05-10T12:41:09;12.90;;;7.88;;
52434;SDS011;38354;52.892;6.148;2023-05-10T12:43:36;15.75;;;8.75;;
52434;SDS011;38354;52.892;6.148;2023-05-10T12:46:09;14.98;;;9.27;;
52434;SDS011;38354;52.892;6.148;2023-05-10T12:48:39;15.88;;;9.30;;
52434;SDS011;38354;52.892;6.148;2023-05-10T12:51:07;16.77;;;9.05;;
52434;SDS011;38354;52.892;6.148;2023-05-10T12:53:37;15.90;;;9.30;;
52434;SDS011;38354;52.892;6.148;2023-05-10T12:56:07;15.70;;;9.57;;
52434;SDS011;38354;52.892;6.148;2023-05-10T12:58:33;16.00;;;9.98;;
52434;SDS011;38354;52.892;6.148;2023-05-10T13:01:00;16.92;;;10.10;;
52434;SDS011;38354;52.892;6.148;2023-05-10T13:03:26;15.93;;;9.05;;
52434;SDS011;38354;52.892;6.148;2023-05-10T13:05:51;15.35;;;9.40;;
52434;SDS011;38354;52.892;6.148;2023-05-10T13:08:17;14.23;;;9.05;;
52434;SDS011;38354;52.892;6.148;2023-05-10T13:10:43;14.00;;;7.93;;
52434;SDS011;38354;52.892;6.148;2023-05-10T13:13:09;13.80;;;8.30;;
52434;SDS011;38354;52.892;6.148;2023-05-10T13:15:34;13.32;;;8.45;;
52434;SDS011;38354;52.892;6.148;2023-05-10T13:18:00;14.70;;;8.90;;
52434;SDS011;38354;52.892;6.148;2023-05-10T13:20:26;14.02;;;8.27;;
52434;SDS011;38354;52.892;6.148;2023-05-10T13:22:52;14.00;;;8.60;;
52434;SDS011;38354;52.892;6.148;2023-05-10T13:25:17;16.88;;;9.27;;
52434;SDS011;38354;52.892;6.148;2023-05-10T13:27:43;15.38;;;8.18;;
52434;SDS011;38354;52.892;6.148;2023-05-10T13:30:09;14.90;;;8.63;;
52434;SDS011;38354;52.892;6.148;2023-05-10T13:32:36;13.15;;;8.63;;
52434;SDS011;38354;52.892;6.148;2023-05-10T13:35:02;15.05;;;8.63;;
52434;SDS011;38354;52.892;6.148;2023-05-10T13:37:28;14.07;;;9.05;;
52434;SDS011;38354;52.892;6.148;2023-05-10T13:39:55;14.63;;;9.70;;
52434;SDS011;38354;52.892;6.148;2023-05-10T13:42:21;16.60;;;10.25;;
52434;SDS011;38354;52.892;6.148;2023-05-10T13:44:48;15.13;;;9.30;;
52434;SDS011;38354;52.892;6.148;2023-05-10T13:47:14;15.20;;;9.38;;
52434;SDS011;38354;52.892;6.148;2023-05-10T13:49:40;13.80;;;8.80;;
52434;SDS011;38354;52.892;6.148;2023-05-10T13:52:06;15.27;;;9.25;;
52434;SDS011;38354;52.892;6.148;2023-05-10T13:54:35;13.98;;;7.88;;
52434;SDS011;38354;52.892;6.148;2023-05-10T13:57:02;12.98;;;8.88;;
52434;SDS011;38354;52.892;6.148;2023-05-10T13:59:28;13.95;;;8.07;;
52434;SDS011;38354;52.892;6.148;2023-05-10T14:01:56;13.80;;;8.15;;
52434;SDS011;38354;52.892;6.148;2023-05-10T14:04:22;14.82;;;8.98;;
52434;SDS011;38354;52.892;6.148;2023-05-10T14:06:48;17.17;;;9.80;;
52434;SDS011;38354;52.892;6.148;2023-05-10T14:09:14;15.43;;;8.93;;
52434;SDS011;38354;52.892;6.148;2023-05-10T14:11:39;14.57;;;8.77;;
52434;SDS011;38354;52.892;6.148;2023-05-10T14:14:08;13.52;;;8.23;;
52434;SDS011;38354;52.892;6.148;2023-05-10T14:16:34;13.50;;;7.97;;
52434;SDS011;38354;52.892;6.148;2023-05-10T14:19:00;13.52;;;7.85;;
52434;SDS011;38354;52.892;6.148;2023-05-10T14:21:26;11.88;;;7.47;;
52434;SDS011;38354;52.892;6.148;2023-05-10T14:23:54;13.02;;;7.43;;
52434;SDS011;38354;52.892;6.148;2023-05-10T14:26:20;11.55;;;7.22;;
52434;SDS011;38354;52.892;6.148;2023-05-10T14:28:46;11.48;;;7.25;;
52434;SDS011;38354;52.892;6.148;2023-05-10T14:31:12;11.88;;;6.18;;
52434;SDS011;38354;52.892;6.148;2023-05-10T14:33:39;10.68;;;6.32;;
52434;SDS011;38354;52.892;6.148;2023-05-10T14:36:05;12.35;;;6.03;;
52434;SDS011;38354;52.892;6.148;2023-05-10T14:38:31;10.55;;;5.95;;
52434;SDS011;38354;52.892;6.148;2023-05-10T14:40:57;9.68;;;5.80;;
52434;SDS011;38354;52.892;6.148;2023-05-10T14:43:23;10.05;;;5.28;;
52434;SDS011;38354;52.892;6.148;2023-05-10T14:45:49;8.93;;;5.85;;
52434;SDS011;38354;52.892;6.148;2023-05-10T14:48:15;7.88;;;5.65;;
52434;SDS011;38354;52.892;6.148;2023-05-10T14:50:42;9.32;;;5.75;;
52434;SDS011;38354;52.892;6.148;2023-05-10T14:53:08;8.70;;;5.00;;
52434;SDS011;38354;52.892;6.148;2023-05-10T14:55:34;5.25;;;3.53;;
52434;SDS011;38354;52.892;6.148;2023-05-10T14:58:00;7.75;;;3.28;;
52434;SDS011;38354;52.892;6.148;2023-05-10T15:00:27;6.32;;;3.38;;
52434;SDS011;38354;52.892;6.148;2023-05-10T15:02:54;4.90;;;2.97;;
52434;SDS011;38354;52.892;6.148;2023-05-10T15:05:19;4.90;;;2.70;;
52434;SDS011;38354;52.892;6.148;2023-05-10T15:07:45;5.38;;;2.05;;
52434;SDS011;38354;52.892;6.148;2023-05-10T15:10:11;5.30;;;2.80;;
52434;SDS011;38354;52.892;6.148;2023-05-10T15:12:37;3.40;;;2.15;;
52434;SDS011;38354;52.892;6.148;2023-05-10T15:15:03;5.18;;;3.28;;
52434;SDS011;38354;52.892;6.148;2023-05-10T15:17:29;7.20;;;3.75;;
52434;SDS011;38354;52.892;6.148;2023-05-10T15:19:55;5.90;;;3.67;;
52434;SDS011;38354;52.892;6.148;2023-05-10T15:22:21;5.53;;;3.95;;
52434;SDS011;38354;52.892;6.148;2023-05-10T15:24:47;6.50;;;4.32;;
52434;SDS011;38354;52.892;6.148;2023-05-10T15:27:13;7.35;;;4.40;;
52434;SDS011;38354;52.892;6.148;2023-05-10T15:29:38;8.68;;;4.38;;
52434;SDS011;38354;52.892;6.148;2023-05-10T15:32:04;6.43;;;4.30;;
52434;SDS011;38354;52.892;6.148;2023-05-10T15:34:30;9.35;;;5.30;;
52434;SDS011;38354;52.892;6.148;2023-05-10T15:36:56;10.15;;;5.88;;
52434;SDS011;38354;52.892;6.148;2023-05-10T15:39:22;9.40;;;6.20;;
52434;SDS011;38354;52.892;6.148;2023-05-10T15:41:47;10.45;;;6.10;;
52434;SDS011;38354;52.892;6.148;2023-05-10T15:44:13;10.52;;;6.00;;
52434;SDS011;38354;52.892;6.148;2023-05-10T15:46:39;11.55;;;6.57;;
52434;SDS011;38354;52.892;6.148;2023-05-10T15:49:05;8.18;;;5.70;;
52434;SDS011;38354;52.892;6.148;2023-05-10T15:51:31;13.32;;;6.50;;
52434;SDS011;38354;52.892;6.148;2023-05-10T15:53:59;9.77;;;5.40;;
52434;SDS011;38354;52.892;6.148;2023-05-10T15:56:27;10.02;;;5.38;;
52434;SDS011;38354;52.892;6.148;2023-05-10T15:58:53;12.20;;;6.20;;
52434;SDS011;38354;52.892;6.148;2023-05-10T16:01:18;10.63;;;6.38;;
52434;SDS011;38354;52.892;6.148;2023-05-10T16:03:44;11.85;;;6.75;;
52434;SDS011;38354;52.892;6.148;2023-05-10T16:06:10;11.43;;;7.50;;
52434;SDS011;38354;52.892;6.148;2023-05-10T16:08:36;12.00;;;7.10;;
52434;SDS011;38354;52.892;6.148;2023-05-10T16:11:02;12.02;;;7.40;;
52434;SDS011;38354;52.892;6.148;2023-05-10T16:13:28;12.73;;;7.63;;
52434;SDS011;38354;52.892;6.148;2023-05-10T16:15:53;10.80;;;6.80;;
52434;SDS011;38354;52.892;6.148;2023-05-10T16:18:19;15.20;;;8.00;;
52434;SDS011;38354;52.892;6.148;2023-05-10T16:20:45;13.70;;;7.25;;
52434;SDS011;38354;52.892;6.148;2023-05-10T16:23:11;12.77;;;7.68;;
52434;SDS011;38354;52.892;6.148;2023-05-10T16:25:38;17.35;;;7.80;;
52434;SDS011;38354;52.892;6.148;2023-05-10T16:28:03;14.48;;;8.18;;
52434;SDS011;38354;52.892;6.148;2023-05-10T16:30:29;15.93;;;8.10;;
52434;SDS011;38354;52.892;6.148;2023-05-10T16:32:55;11.65;;;7.47;;
52434;SDS011;38354;52.892;6.148;2023-05-10T16:35:22;11.93;;;7.43;;
52434;SDS011;38354;52.892;6.148;2023-05-10T16:37:48;11.35;;;7.18;;
52434;SDS011;38354;52.892;6.148;2023-05-10T16:40:14;11.70;;;7.55;;
52434;SDS011;38354;52.892;6.148;2023-05-10T16:42:41;11.77;;;7.65;;
52434;SDS011;38354;52.892;6.148;2023-05-10T16:45:06;10.60;;;7.07;;
52434;SDS011;38354;52.892;6.148;2023-05-10T16:47:33;11.38;;;7.22;;
52434;SDS011;38354;52.892;6.148;2023-05-10T16:50:03;10.20;;;6.97;;
52434;SDS011;38354;52.892;6.148;2023-05-10T16:52:30;13.40;;;7.43;;
52434;SDS011;38354;52.892;6.148;2023-05-10T16:54:57;9.98;;;6.43;;
52434;SDS011;38354;52.892;6.148;2023-05-10T16:57:23;10.52;;;7.28;;
52434;SDS011;38354;52.892;6.148;2023-05-10T16:59:49;10.07;;;6.55;;
52434;SDS011;38354;52.892;6.148;2023-05-10T17:02:17;10.77;;;7.70;;
52434;SDS011;38354;52.892;6.148;2023-05-10T17:04:43;10.38;;;7.20;;
52434;SDS011;38354;52.892;6.148;2023-05-10T17:07:09;11.48;;;6.72;;
52434;SDS011;38354;52.892;6.148;2023-05-10T17:09:37;11.00;;;7.38;;
52434;SDS011;38354;52.892;6.148;2023-05-10T17:12:03;11.10;;;6.80;;
52434;SDS011;38354;52.892;6.148;2023-05-10T17:14:28;9.23;;;6.63;;
52434;SDS011;38354;52.892;6.148;2023-05-10T17:16:54;10.13;;;7.10;;
52434;SDS011;38354;52.892;6.148;2023-05-10T17:19:20;11.10;;;6.72;;
52434;SDS011;38354;52.892;6.148;2023-05-10T17:21:45;11.98;;;7.07;;
52434;SDS011;38354;52.892;6.148;2023-05-10T17:24:12;12.00;;;7.57;;
52434;SDS011;38354;52.892;6.148;2023-05-10T17:26:37;11.60;;;7.47;;
52434;SDS011;38354;52.892;6.148;2023-05-10T17:29:03;11.00;;;7.70;;
52434;SDS011;38354;52.892;6.148;2023-05-10T17:31:29;12.02;;;7.05;;
52434;SDS011;38354;52.892;6.148;2023-05-10T17:33:55;10.82;;;7.65;;
52434;SDS011;38354;52.892;6.148;2023-05-10T17:36:20;11.43;;;7.85;;
52434;SDS011;38354;52.892;6.148;2023-05-10T17:38:46;10.90;;;8.05;;
52434;SDS011;38354;52.892;6.148;2023-05-10T17:41:12;12.73;;;8.65;;
52434;SDS011;38354;52.892;6.148;2023-05-10T17:43:38;13.50;;;8.90;;
52434;SDS011;38354;52.892;6.148;2023-05-10T17:46:04;15.05;;;8.82;;
52434;SDS011;38354;52.892;6.148;2023-05-10T17:48:29;13.95;;;8.38;;
52434;SDS011;38354;52.892;6.148;2023-05-10T17:50:55;13.95;;;8.32;;
52434;SDS011;38354;52.892;6.148;2023-05-10T17:53:21;11.95;;;8.00;;
52434;SDS011;38354;52.892;6.148;2023-05-10T17:55:46;11.75;;;7.18;;
52434;SDS011;38354;52.892;6.148;2023-05-10T17:58:12;11.07;;;7.22;;
52434;SDS011;38354;52.892;6.148;2023-05-10T18:00:38;11.70;;;7.72;;
52434;SDS011;38354;52.892;6.148;2023-05-10T18:03:04;12.38;;;7.55;;
52434;SDS011;38354;52.892;6.148;2023-05-10T18:05:30;12.88;;;7.93;;
52434;SDS011;38354;52.892;6.148;2023-05-10T18:07:58;12.52;;;6.72;;